Time;durP1;ratioP1;P1;durP2;ratioP2;P2;SDS_P1;SDS_P2;PMS_P1;PMS_P2;Temp;Humidity;BMP_temperature;BMP_pressure;BME280_temperature;BME280_humidity;BME280_pressure;Samples;Min_cycle;Max_cycle;Signal;HPM_P1;HPM_P2
2023/08/11 00:02:25;;;;;;;7.78;5.72;;;16.40;99.90;;;;;;5013849;28;20072;-83
2023/08/11 00:04:51;;;;;;;8.68;5.85;;;16.40;99.90;;;;;;5027597;28;20547;-85
2023/08/11 00:07:16;;;;;;;7.68;5.55;;;16.50;99.90;;;;;;5028618;28;20100;-83
2023/08/11 00:09:42;;;;;;;8.05;5.78;;;16.40;99.90;;;;;;5018066;28;20060;-85
2023/08/11 00:12:08;;;;;;;7.82;5.07;;;16.40;99.90;;;;;;5030674;28;20281;-84
2023/08/11 00:14:33;;;;;;;9.70;5.32;;;16.30;99.90;;;;;;5013503;28;20017;-84
2023/08/11 00:16:59;;;;;;;10.10;5.32;;;16.30;99.90;;;;;;5031070;28;20018;-83
2023/08/11 00:19:25;;;;;;;17.40;6.30;;;16.20;99.90;;;;;;5031373;28;20109;-84
2023/08/11 00:21:51;;;;;;;7.10;5.63;;;16.20;99.90;;;;;;5030538;28;20502;-84
2023/08/11 00:24:17;;;;;;;7.68;5.35;;;16.20;99.90;;;;;;5012950;28;20025;-85
2023/08/11 00:26:42;;;;;;;8.57;6.18;;;16.20;99.90;;;;;;5012849;28;20061;-83
2023/08/11 00:29:08;;;;;;;14.60;6.65;;;16.10;99.90;;;;;;5012895;28;20079;-83
2023/08/11 00:31:35;;;;;;;7.68;6.00;;;16.10;99.90;;;;;;5030614;28;20043;-83
2023/08/11 00:34:01;;;;;;;10.50;5.95;;;16.00;99.90;;;;;;5012265;28;20017;-84
2023/08/11 00:36:26;;;;;;;7.80;5.15;;;15.90;99.90;;;;;;5054365;23;20060;-86
2023/08/11 00:38:52;;;;;;;7.75;6.43;;;15.80;99.90;;;;;;5052448;28;20411;-86
2023/08/11 00:41:18;;;;;;;7.55;5.40;;;15.80;99.90;;;;;;5034949;28;20044;-87
2023/08/11 00:43:44;;;;;;;5.72;4.93;;;15.90;99.90;;;;;;5041703;28;20066;-87
2023/08/11 00:46:13;;;;;;;9.43;5.30;;;15.90;99.90;;;;;;5034542;28;20035;-86
2023/08/11 00:48:41;;;;;;;11.68;5.65;;;15.80;99.90;;;;;;5051634;28;20035;-86
2023/08/11 00:51:09;;;;;;;7.30;6.22;;;15.90;99.90;;;;;;5051778;28;20367;-86
2023/08/11 00:53:36;;;;;;;12.38;5.80;;;15.90;99.90;;;;;;5033475;28;20021;-88
2023/08/11 00:56:03;;;;;;;6.65;5.90;;;15.80;99.90;;;;;;5043331;28;20104;-86
2023/08/11 00:58:30;;;;;;;8.15;5.57;;;15.80;99.90;;;;;;5032237;28;20398;-86
2023/08/11 01:00:57;;;;;;;7.78;5.50;;;15.80;99.90;;;;;;5030187;28;20052;-86
2023/08/11 01:03:24;;;;;;;7.03;5.90;;;15.80;99.90;;;;;;5043496;28;20024;-87
2023/08/11 01:06:05;;;;;;;8.40;5.80;;;15.80;99.90;;;;;;5033634;28;20075;-86
2023/08/11 01:08:43;;;;;;;8.43;5.32;;;15.80;99.90;;;;;;5032715;28;20021;-87
2023/08/11 01:11:34;;;;;;;6.65;4.97;;;15.70;99.90;;;;;;5022232;28;20496;-89
2023/08/11 01:14:17;;;;;;;9.18;5.35;;;15.70;99.90;;;;;;5038822;28;20061;-87
2023/08/11 01:16:48;;;;;;;7.55;5.18;;;15.70;99.90;;;;;;5023498;28;20024;-86
2023/08/11 01:19:35;;;;;;;6.83;5.27;;;15.60;99.90;;;;;;5038287;28;20035;-88
2023/08/11 01:22:04;;;;;;;6.57;5.30;;;15.60;99.90;;;;;;5033201;28;20029;-88
2023/08/11 01:24:31;;;;;;;11.73;5.85;;;15.50;99.90;;;;;;5050374;28;20017;-87
2023/08/11 01:26:57;;;;;;;7.10;5.30;;;15.50;99.90;;;;;;5051064;28;20099;-87
2023/08/11 01:29:24;;;;;;;7.72;4.70;;;15.40;99.90;;;;;;5033158;28;20025;-86
2023/08/11 01:31:50;;;;;;;7.53;5.72;;;15.40;99.90;;;;;;5032599;28;20067;-86
2023/08/11 01:34:16;;;;;;;8.93;4.95;;;15.40;99.90;;;;;;5050479;28;20053;-89
2023/08/11 01:36:42;;;;;;;8.15;6.20;;;15.30;99.90;;;;;;5052120;23;20091;-84
2023/08/11 01:39:09;;;;;;;8.50;5.78;;;15.20;99.90;;;;;;5032180;28;20031;-83
2023/08/11 01:41:39;;;;;;;8.30;5.63;;;15.20;99.90;;;;;;5049916;28;20079;-84
2023/08/11 01:44:08;;;;;;;12.02;7.53;;;15.20;99.90;;;;;;5030695;28;20116;-83
2023/08/11 01:46:34;;;;;;;11.00;7.85;;;15.20;99.90;;;;;;5042360;28;20405;-83
2023/08/11 01:49:01;;;;;;;15.55;9.70;;;15.20;99.90;;;;;;5048484;28;20029;-83
2023/08/11 01:51:27;;;;;;;13.80;10.23;;;15.20;99.90;;;;;;5048406;28;20103;-83
2023/08/11 01:53:53;;;;;;;14.73;9.15;;;15.20;99.90;;;;;;5048649;28;20092;-82
2023/08/11 01:56:20;;;;;;;14.98;9.23;;;15.20;99.90;;;;;;5030775;28;20029;-84
2023/08/11 01:58:47;;;;;;;17.10;10.57;;;15.20;99.90;;;;;;5030924;28;20017;-83
2023/08/11 02:01:16;;;;;;;17.63;8.60;;;15.10;99.90;;;;;;5048827;28;20547;-83
2023/08/11 02:03:42;;;;;;;27.67;10.10;;;15.00;99.90;;;;;;5030475;28;20033;-83
2023/08/11 02:06:08;;;;;;;11.32;7.68;;;15.10;99.90;;;;;;5030071;28;20366;-83
2023/08/11 02:08:33;;;;;;;16.20;11.32;;;15.00;99.90;;;;;;5049370;28;20063;-84
2023/08/11 02:10:59;;;;;;;13.68;9.40;;;15.00;99.90;;;;;;5033555;28;20078;-84
2023/08/11 02:13:25;;;;;;;15.82;9.50;;;15.10;99.90;;;;;;5051541;28;20405;-83
2023/08/11 02:15:50;;;;;;;15.98;10.60;;;15.10;99.90;;;;;;5052125;28;20021;-84
2023/08/11 02:18:16;;;;;;;22.85;13.85;;;15.10;99.90;;;;;;5034244;28;20017;-84
2023/08/11 02:20:42;;;;;;;30.05;13.75;;;15.20;99.90;;;;;;5033770;28;20043;-83
2023/08/11 02:23:08;;;;;;;14.68;9.23;;;15.20;99.90;;;;;;5034280;28;20029;-83
2023/08/11 02:25:34;;;;;;;13.68;9.15;;;15.40;99.90;;;;;;5052175;28;20013;-83
2023/08/11 02:28:00;;;;;;;12.57;9.13;;;15.40;99.90;;;;;;5051702;28;20014;-83
2023/08/11 02:30:29;;;;;;;15.73;9.80;;;15.40;99.90;;;;;;5033997;28;20029;-84
2023/08/11 02:32:55;;;;;;;17.55;11.38;;;15.50;99.90;;;;;;5052007;28;20025;-83
2023/08/11 02:35:21;;;;;;;18.90;11.85;;;15.60;99.90;;;;;;5050915;28;20066;-83
2023/08/11 02:37:47;;;;;;;20.02;12.23;;;15.80;99.90;;;;;;5033130;28;20116;-84
2023/08/11 02:40:14;;;;;;;24.35;8.85;;;15.80;99.90;;;;;;5033860;28;20028;-83
2023/08/11 02:42:48;;;;;;;24.77;6.45;;;16.20;99.90;;;;;;5033086;28;20055;-84
2023/08/11 02:45:15;;;;;;;16.25;5.13;;;16.50;99.90;;;;;;5032989;28;20061;-85
2023/08/11 02:47:41;;;;;;;21.08;5.53;;;16.80;99.90;;;;;;5033377;28;20028;-84
2023/08/11 02:50:08;;;;;;;22.88;4.78;;;17.20;99.90;;;;;;5033228;28;20025;-84
2023/08/11 02:52:34;;;;;;;13.88;4.03;;;17.50;99.90;;;;;;5051175;28;20030;-83
2023/08/11 02:55:00;;;;;;;22.65;4.25;;;17.80;99.90;;;;;;5051306;28;20021;-82
2023/08/11 02:57:26;;;;;;;16.65;3.58;;;17.90;99.90;;;;;;5051560;28;20063;-84
2023/08/11 02:59:52;;;;;;;17.15;4.25;;;18.10;99.90;;;;;;5051063;28;20626;-83
2023/08/11 03:02:17;;;;;;;21.90;4.22;;;18.20;99.90;;;;;;5050931;28;20405;-84
2023/08/11 03:04:43;;;;;;;19.75;4.78;;;18.30;99.90;;;;;;5033820;28;20020;-83
2023/08/11 04:06:42;;;;;;;16.65;5.25;;;18.70;99.90;;;;;;5661374;22;19932;-86
2023/08/11 04:09:08;;;;;;;16.42;5.32;;;18.70;99.90;;;;;;5050816;28;20024;-85
2023/08/11 04:11:34;;;;;;;16.42;4.60;;;18.70;99.90;;;;;;5051099;28;20028;-86
2023/08/11 04:13:59;;;;;;;15.68;4.68;;;18.70;99.90;;;;;;5032891;28;20028;-86
2023/08/11 04:16:25;;;;;;;15.75;4.60;;;18.70;99.90;;;;;;5026422;28;20411;-87
2023/08/11 04:18:51;;;;;;;18.27;4.55;;;18.60;99.90;;;;;;5031094;28;20498;-86
2023/08/11 04:21:17;;;;;;;20.23;6.00;;;18.70;99.90;;;;;;5020701;28;20068;-87
2023/08/11 04:23:43;;;;;;;19.27;5.03;;;18.70;99.90;;;;;;5013291;28;20017;-87
2023/08/11 04:26:10;;;;;;;20.88;4.32;;;18.70;99.90;;;;;;5013550;28;20037;-86
2023/08/11 04:28:36;;;;;;;16.55;4.22;;;18.70;99.90;;;;;;5030773;28;20014;-86
2023/08/11 04:31:02;;;;;;;20.60;4.93;;;18.70;99.90;;;;;;5030366;28;20022;-86
2023/08/11 04:33:30;;;;;;;13.55;4.15;;;18.70;99.90;;;;;;5013515;28;20393;-87
2023/08/11 04:35:55;;;;;;;14.25;4.38;;;18.70;99.90;;;;;;5013430;28;20600;-87
2023/08/11 04:38:21;;;;;;;8.20;3.35;;;18.70;99.90;;;;;;5030523;28;20108;-85
2023/08/11 04:40:50;;;;;;;14.68;3.65;;;18.70;99.90;;;;;;5030381;28;20163;-84
2023/08/11 04:43:16;;;;;;;14.70;3.40;;;18.80;99.90;;;;;;5012788;28;20026;-85
2023/08/11 04:45:42;;;;;;;17.98;4.78;;;18.70;99.90;;;;;;5012526;28;20028;-85
2023/08/11 04:48:07;;;;;;;16.27;4.20;;;18.80;99.90;;;;;;5012480;28;20096;-85
2023/08/11 04:50:33;;;;;;;22.70;4.68;;;18.70;99.90;;;;;;5030882;28;20021;-86
2023/08/11 04:52:59;;;;;;;26.30;4.82;;;18.80;99.90;;;;;;5012607;28;20075;-87
2023/08/11 04:55:24;;;;;;;18.13;4.47;;;18.80;99.90;;;;;;5012898;28;20036;-86
2023/08/11 04:57:50;;;;;;;14.75;3.90;;;18.80;99.90;;;;;;5030528;28;20033;-85
2023/08/11 05:00:16;;;;;;;17.58;4.30;;;18.80;99.90;;;;;;5012746;28;20013;-85
2023/08/11 05:02:44;;;;;;;22.67;4.25;;;18.80;99.90;;;;;;5030068;28;20037;-83
2023/08/11 05:05:10;;;;;;;17.38;3.70;;;18.80;99.90;;;;;;5012996;28;20449;-86
2023/08/11 06:07:09;;;;;;;12.82;3.70;;;19.20;99.90;;;;;;5459546;23;20042;-86
2023/08/11 06:09:34;;;;;;;16.17;4.25;;;19.20;99.90;;;;;;5038942;28;20048;-86
2023/08/11 06:12:00;;;;;;;15.55;4.20;;;19.20;99.90;;;;;;5033466;28;20051;-86
2023/08/11 06:14:26;;;;;;;15.18;4.57;;;19.20;99.90;;;;;;5031425;28;20071;-86
2023/08/11 06:16:51;;;;;;;11.07;3.42;;;19.30;99.90;;;;;;5033658;28;20022;-86
2023/08/11 06:19:17;;;;;;;15.93;4.15;;;19.30;99.90;;;;;;5030956;28;20032;-86
2023/08/11 06:21:45;;;;;;;19.40;4.45;;;19.30;99.90;;;;;;5030909;28;20044;-86
2023/08/11 06:24:11;;;;;;;18.30;4.25;;;19.30;99.90;;;;;;5032828;28;20079;-85
2023/08/11 06:26:37;;;;;;;13.35;4.05;;;19.30;99.90;;;;;;5030607;28;20017;-86
2023/08/11 06:29:04;;;;;;;10.95;3.83;;;19.40;99.90;;;;;;5033020;28;20499;-85
2023/08/11 06:31:30;;;;;;;16.70;3.75;;;19.40;99.90;;;;;;5026623;28;20036;-85
2023/08/11 06:33:56;;;;;;;16.95;4.78;;;19.50;99.90;;;;;;5030336;28;20099;-84
2023/08/11 06:36:21;;;;;;;15.88;3.60;;;19.50;99.90;;;;;;5032435;28;20069;-85
2023/08/11 06:38:47;;;;;;;19.95;3.90;;;19.50;99.90;;;;;;5027750;28;20490;-85
2023/08/11 06:41:13;;;;;;;14.13;3.80;;;19.50;99.90;;;;;;5019295;28;20044;-86
2023/08/11 06:43:39;;;;;;;11.93;3.28;;;19.60;99.90;;;;;;5032000;28;20557;-85
2023/08/11 06:46:05;;;;;;;9.35;3.22;;;19.70;99.90;;;;;;5032877;28;20556;-88
2023/08/11 06:48:31;;;;;;;12.48;3.55;;;19.70;99.90;;;;;;5030180;28;20061;-86
2023/08/11 06:50:57;;;;;;;12.15;3.20;;;19.80;99.90;;;;;;5032951;28;20099;-86
2023/08/11 06:53:23;;;;;;;10.50;3.22;;;19.80;99.90;;;;;;5032838;28;20037;-87
2023/08/11 06:55:48;;;;;;;10.35;2.92;;;19.90;99.90;;;;;;5030038;28;20033;-86
2023/08/11 06:58:14;;;;;;;12.50;3.13;;;20.00;99.90;;;;;;5030212;28;20028;-86
2023/08/11 07:00:39;;;;;;;9.75;2.75;;;20.10;99.90;;;;;;5025578;28;20029;-82
2023/08/11 07:03:05;;;;;;;8.20;2.80;;;20.20;99.90;;;;;;5014632;28;20177;-81
2023/08/11 07:05:31;;;;;;;9.88;2.67;;;20.10;99.90;;;;;;5031351;28;20497;-83
2023/08/11 07:07:57;;;;;;;6.05;2.47;;;20.20;99.90;;;;;;5029803;28;20037;-85
2023/08/11 07:10:22;;;;;;;9.45;2.20;;;20.30;99.90;;;;;;5031943;28;20104;-81
2023/08/11 07:12:48;;;;;;;4.30;2.40;;;20.20;99.90;;;;;;5029676;28;20036;-80
2023/08/11 07:15:14;;;;;;;7.72;2.22;;;20.30;99.90;;;;;;5032090;28;20029;-84
2023/08/11 07:17:39;;;;;;;7.65;2.53;;;20.30;99.90;;;;;;5031778;28;20029;-81
2023/08/11 07:20:06;;;;;;;8.20;2.50;;;20.30;99.90;;;;;;5028855;28;20021;-83
2023/08/11 07:22:31;;;;;;;8.23;3.58;;;20.40;99.90;;;;;;5023004;28;20095;-82
2023/08/11 07:24:57;;;;;;;6.18;2.20;;;20.50;99.90;;;;;;5029586;28;20025;-80
2023/08/11 07:27:23;;;;;;;5.32;1.52;;;20.60;99.90;;;;;;5031542;28;20037;-80
2023/08/11 07:29:48;;;;;;;6.75;1.80;;;20.70;99.90;;;;;;5031713;28;20017;-78
2023/08/11 07:32:14;;;;;;;5.13;1.50;;;20.80;99.90;;;;;;5031737;28;20040;-82
2023/08/11 07:34:40;;;;;;;5.28;1.83;;;21.00;99.90;;;;;;5030957;28;20493;-80
2023/08/11 09:36:20;;;;;;;4.38;1.55;;;22.10;99.90;;;;;;5795877;23;20052;-82
2023/08/11 09:38:47;;;;;;;6.68;2.00;;;22.20;99.90;;;;;;4915639;29;20028;-82
2023/08/11 09:41:13;;;;;;;3.60;1.65;;;22.20;99.90;;;;;;4916159;29;20818;-83
2023/08/11 09:43:44;;;;;;;7.53;2.00;;;22.20;99.90;;;;;;4915900;29;20031;-82
2023/08/11 09:46:10;;;;;;;7.13;1.88;;;22.20;99.90;;;;;;4906269;29;20057;-83
2023/08/11 09:48:35;;;;;;;6.05;2.20;;;22.40;99.90;;;;;;4895682;29;20085;-82
2023/08/11 09:51:02;;;;;;;5.50;2.10;;;22.80;99.90;;;;;;4912046;29;20021;-83
2023/08/11 09:53:28;;;;;;;10.07;1.95;;;22.90;99.90;;;;;;4904882;29;20108;-84
2023/08/11 09:55:56;;;;;;;10.05;2.20;;;23.00;99.80;;;;;;4898331;29;20493;-83
2023/08/11 09:58:26;;;;;;;5.72;2.42;;;23.40;99.90;;;;;;4896394;29;20440;-85
2023/08/11 10:00:54;;;;;;;6.00;2.47;;;24.00;97.50;;;;;;4896419;29;20475;-81
2023/08/11 10:03:26;;;;;;;4.35;1.98;;;24.50;97.00;;;;;;4897615;29;20029;-85
2023/08/11 10:05:54;;;;;;;4.18;1.65;;;24.60;96.00;;;;;;4911788;29;20118;-84
2023/08/11 10:08:23;;;;;;;7.72;1.92;;;24.60;96.20;;;;;;4897020;29;20032;-84
2023/08/11 10:10:49;;;;;;;5.35;1.50;;;25.10;95.50;;;;;;4891886;29;20547;-84
2023/08/11 10:13:17;;;;;;;4.32;2.10;;;26.10;93.50;;;;;;4898188;29;20154;-82
2023/08/11 10:15:44;;;;;;;4.68;1.60;;;26.60;92.20;;;;;;4896830;29;20604;-82
2023/08/11 10:18:10;;;;;;;9.35;2.17;;;26.50;92.10;;;;;;4897938;29;20116;-81
2023/08/11 10:20:36;;;;;;;4.68;2.00;;;26.60;91.30;;;;;;4896026;29;20056;-83
2023/08/11 10:23:02;;;;;;;9.68;2.00;;;26.50;90.60;;;;;;4895961;29;20073;-82
2023/08/11 10:25:29;;;;;;;9.27;2.03;;;26.30;91.10;;;;;;4904956;29;20020;-84
2023/08/11 10:27:56;;;;;;;5.75;1.77;;;26.10;90.60;;;;;;4911148;29;20028;-81
2023/08/11 10:30:23;;;;;;;7.85;2.10;;;26.40;91.30;;;;;;4896850;29;20444;-84
2023/08/11 10:33:02;;;;;;;6.43;2.53;;;26.90;90.20;;;;;;4897470;29;20112;-83
2023/08/11 10:35:47;;;;;;;5.35;1.73;;;27.10;90.70;;;;;;4892553;29;20020;-84
2023/08/11 10:38:26;;;;;;;6.03;1.90;;;26.70;87.70;;;;;;4934564;23;20102;-89
2023/08/11 10:40:58;;;;;;;6.57;2.10;;;26.40;89.00;;;;;;4916231;29;20020;-89
2023/08/11 10:43:31;;;;;;;4.13;1.55;;;27.10;90.50;;;;;;4922556;29;20028;-88
2023/08/11 10:46:13;;;;;;;10.23;2.22;;;27.70;86.50;;;;;;4915289;29;20020;-88
2023/08/11 10:48:39;;;;;;;7.15;2.55;;;28.10;84.70;;;;;;4912625;29;20405;-86
2023/08/11 10:51:19;;;;;;;8.93;2.20;;;28.60;83.80;;;;;;4915419;29;20035;-87
2023/08/11 10:53:45;;;;;;;8.73;2.60;;;29.10;80.80;;;;;;4915356;29;20020;-87
2023/08/11 10:56:12;;;;;;;9.30;3.08;;;29.10;79.60;;;;;;4914639;29;20055;-90
2023/08/11 10:58:38;;;;;;;7.97;2.03;;;30.00;77.70;;;;;;4909931;29;20143;-88
2023/08/11 11:01:04;;;;;;;3.58;1.75;;;31.00;74.70;;;;;;4915768;29;20141;-86
2023/08/11 11:03:30;;;;;;;4.97;1.92;;;31.10;74.00;;;;;;4902715;29;20508;-89
2023/08/11 11:05:57;;;;;;;5.43;2.35;;;31.80;70.80;;;;;;4916873;29;20035;-91
2023/08/11 11:08:23;;;;;;;3.15;1.65;;;31.80;68.50;;;;;;4916851;29;20509;-90
2023/08/11 11:10:48;;;;;;;5.38;1.73;;;32.10;67.90;;;;;;4915785;29;20118;-89
2023/08/11 11:13:14;;;;;;;6.13;2.13;;;31.80;66.10;;;;;;4903759;29;20111;-88
2023/08/11 11:15:40;;;;;;;7.10;2.00;;;31.40;68.70;;;;;;4910793;29;20119;-91
2023/08/11 11:18:07;;;;;;;5.93;3.10;;;31.60;67.10;;;;;;4911592;29;20119;-89
2023/08/11 11:20:33;;;;;;;5.65;2.33;;;31.70;66.40;;;;;;4917060;29;20022;-87
2023/08/11 11:23:00;;;;;;;9.20;3.03;;;31.50;69.10;;;;;;4916477;29;20032;-90
2023/08/11 11:25:27;;;;;;;5.22;1.63;;;31.70;65.70;;;;;;4910146;29;20386;-89
2023/08/11 11:27:55;;;;;;;8.60;2.38;;;31.50;65.90;;;;;;4913595;29;20052;-88
2023/08/11 11:30:21;;;;;;;6.82;2.05;;;31.40;65.10;;;;;;4915602;29;20082;-91
2023/08/11 11:32:49;;;;;;;4.88;1.92;;;30.70;66.10;;;;;;4915379;29;20430;-87
2023/08/11 11:35:17;;;;;;;4.85;1.98;;;30.00;68.60;;;;;;4900315;29;20076;-86
2023/08/11 11:37:44;;;;;;;6.88;1.88;;;29.60;69.30;;;;;;4928424;23;20501;-86
2023/08/11 11:40:13;;;;;;;5.65;1.58;;;29.40;69.90;;;;;;4913645;29;20036;-86
2023/08/11 11:42:39;;;;;;;5.95;1.73;;;29.40;70.80;;;;;;4908363;29;20032;-88
2023/08/11 11:45:06;;;;;;;6.72;1.63;;;29.60;70.40;;;;;;4915652;29;20039;-89
2023/08/11 11:47:33;;;;;;;5.30;1.92;;;29.60;70.40;;;;;;4912913;29;20063;-84
2023/08/11 11:50:04;;;;;;;3.75;1.33;;;29.30;69.60;;;;;;4913698;29;20067;-86
2023/08/11 11:52:29;;;;;;;;;;;28.90;70.30;;;;;;4913342;29;20501;-83
2023/08/11 11:54:55;;;;;;;5.28;1.60;;;28.30;74.70;;;;;;4912503;29;19907;-85
2023/08/11 11:57:21;;;;;;;5.25;1.60;;;28.20;77.60;;;;;;4912985;29;20056;-82
2023/08/11 11:59:48;;;;;;;7.60;1.75;;;28.10;76.40;;;;;;4913977;29;20024;-85
2023/08/11 12:02:15;;;;;;;7.50;2.13;;;28.20;76.00;;;;;;4913741;29;20032;-83
2023/08/11 12:04:45;;;;;;;11.65;4.93;;;27.90;77.70;;;;;;4914376;29;20016;-86
2023/08/11 12:07:30;;;;;;;7.47;3.85;;;27.90;78.00;;;;;;4908472;29;20028;-87
2023/08/11 12:09:56;;;;;;;12.93;3.58;;;27.90;77.80;;;;;;4913091;29;20020;-85
2023/08/11 12:12:26;;;;;;;11.73;2.20;;;27.50;78.00;;;;;;4914311;29;20027;-84
2023/08/11 12:14:53;;;;;;;6.80;2.10;;;27.10;78.80;;;;;;4913846;29;20036;-83
2023/08/11 12:17:20;;;;;;;6.97;2.40;;;26.50;82.50;;;;;;4914016;29;20024;-83
2023/08/11 12:19:46;;;;;;;9.60;2.28;;;26.30;84.40;;;;;;4912000;29;20393;-85
2023/08/11 12:22:12;;;;;;;6.55;2.47;;;26.10;85.30;;;;;;4913476;29;20044;-85
2023/08/11 12:24:37;;;;;;;8.57;2.22;;;25.70;86.10;;;;;;4913438;29;20016;-85
2023/08/11 12:27:03;;;;;;;9.93;2.70;;;25.50;90.00;;;;;;4910933;29;20029;-83
2023/08/11 12:29:29;;;;;;;7.80;2.22;;;25.20;93.50;;;;;;4913551;29;20039;-84
2023/08/11 12:31:55;;;;;;;7.82;2.22;;;24.70;94.90;;;;;;4913658;29;20032;-84
2023/08/11 12:34:20;;;;;;;7.97;2.30;;;24.60;95.00;;;;;;4913813;29;20017;-84
2023/08/11 12:36:46;;;;;;;6.25;1.63;;;24.40;98.40;;;;;;4924639;23;20077;-85
2023/08/11 12:39:12;;;;;;;5.00;1.65;;;24.40;99.20;;;;;;4916264;29;20043;-85
2023/08/11 12:41:38;;;;;;;4.50;1.50;;;24.30;96.60;;;;;;4910142;29;20083;-85
2023/08/11 12:44:05;;;;;;;3.75;1.10;;;24.10;98.90;;;;;;4919395;29;20055;-86
2023/08/11 12:46:30;;;;;;;3.17;1.20;;;24.10;98.60;;;;;;4922251;29;20036;-85
2023/08/11 12:48:56;;;;;;;4.65;1.23;;;23.90;99.20;;;;;;4901762;29;20486;-84
2023/08/11 12:51:22;;;;;;;4.25;1.23;;;23.90;99.90;;;;;;4908349;29;20040;-84
2023/08/11 12:53:48;;;;;;;3.80;1.00;;;23.90;99.10;;;;;;4898644;29;20144;-87
2023/08/11 12:56:13;;;;;;;1.10;0.80;;;23.70;99.60;;;;;;4898686;29;20135;-84
2023/08/11 12:58:39;;;;;;;2.53;0.95;;;23.30;99.90;;;;;;4898275;29;20469;-85
2023/08/11 13:01:06;;;;;;;3.25;1.10;;;23.10;99.90;;;;;;4905638;29;20079;-89
2023/08/11 13:03:33;;;;;;;2.85;0.90;;;23.20;99.90;;;;;;4898564;29;20039;-84
2023/08/11 13:05:59;;;;;;;3.47;1.48;;;23.10;99.90;;;;;;4899564;29;20048;-87
2023/08/11 13:08:25;;;;;;;1.10;0.60;;;23.00;99.90;;;;;;4897916;29;20032;-86
2023/08/11 13:10:50;;;;;;;3.08;1.25;;;22.70;99.90;;;;;;4902653;29;20658;-85
2023/08/11 13:13:16;;;;;;;1.27;0.85;;;22.40;99.90;;;;;;4896310;29;20099;-89
2023/08/11 13:15:41;;;;;;;1.10;0.70;;;22.30;99.90;;;;;;4900253;29;20032;-87
2023/08/11 13:18:07;;;;;;;0.82;0.70;;;22.30;99.90;;;;;;4902172;29;20482;-86
2023/08/11 13:20:33;;;;;;;0.68;0.52;;;22.50;99.90;;;;;;4909863;29;20024;-85
2023/08/11 13:22:58;;;;;;;1.13;0.60;;;22.70;99.90;;;;;;4902403;29;20032;-86
2023/08/11 13:25:24;;;;;;;0.95;0.55;;;23.00;99.90;;;;;;4902096;29;20025;-86
2023/08/11 13:27:50;;;;;;;0.50;0.40;;;23.00;99.90;;;;;;4904373;29;20072;-86
2023/08/11 13:30:16;;;;;;;1.20;0.55;;;23.00;99.90;;;;;;4896254;29;20040;-87
2023/08/11 13:32:42;;;;;;;0.57;0.40;;;23.00;99.90;;;;;;4898601;29;20028;-89
2023/08/11 13:35:11;;;;;;;1.33;0.47;;;23.10;99.90;;;;;;4908737;29;20024;-89
2023/08/11 13:37:38;;;;;;;1.92;0.85;;;23.30;99.90;;;;;;4908966;29;20039;-90
2023/08/11 13:40:05;;;;;;;2.50;0.50;;;23.30;99.90;;;;;;4898675;29;20747;-89
2023/08/11 13:42:31;;;;;;;0.75;0.40;;;23.30;99.90;;;;;;4911697;29;20036;-87
2023/08/11 13:44:57;;;;;;;0.40;0.40;;;23.20;99.90;;;;;;4903482;29;20031;-90
2023/08/11 13:47:24;;;;;;;0.65;0.40;;;23.20;99.90;;;;;;4909051;29;20088;-91
2023/08/11 13:49:50;;;;;;;1.00;0.40;;;23.10;99.90;;;;;;4898751;29;20027;-90
2023/08/11 13:52:16;;;;;;;0.73;0.50;;;22.90;99.90;;;;;;4913138;29;20036;-85
2023/08/11 13:55:02;;;;;;;0.85;0.50;;;22.60;99.90;;;;;;4902950;29;20458;-89
2023/08/11 13:57:27;;;;;;;0.88;0.60;;;22.60;99.90;;;;;;4903833;29;20024;-89
2023/08/11 13:59:58;;;;;;;4.57;0.60;;;22.40;99.90;;;;;;4895541;29;20043;-87
2023/08/11 14:02:26;;;;;;;1.00;0.80;;;22.00;99.90;;;;;;4898981;29;20040;-87
2023/08/11 14:04:52;;;;;;;1.15;0.75;;;22.20;99.90;;;;;;4909657;29;20323;-90
2023/08/11 14:07:21;;;;;;;0.80;0.80;;;22.20;99.90;;;;;;4908026;29;20056;-90
2023/08/11 14:09:47;;;;;;;2.53;1.10;;;22.20;99.90;;;;;;4907854;29;20066;-91
2023/08/11 14:12:14;;;;;;;1.25;0.90;;;22.10;99.90;;;;;;4907097;29;20064;-91
2023/08/11 14:14:40;;;;;;;1.40;0.98;;;22.20;99.90;;;;;;4910890;29;20029;-91
2023/08/11 14:17:06;;;;;;;1.35;0.88;;;22.00;99.90;;;;;;4905727;29;20447;-90
2023/08/11 14:19:32;;;;;;;1.33;1.00;;;21.80;99.90;;;;;;4909009;29;20100;-90
2023/08/11 14:21:57;;;;;;;2.33;1.40;;;21.70;99.90;;;;;;4915505;29;20036;-92
2023/08/11 14:24:23;;;;;;;2.60;1.40;;;21.70;99.90;;;;;;4907242;29;20032;-90
2023/08/11 14:26:49;;;;;;;2.10;1.70;;;21.60;99.90;;;;;;4914805;29;20039;-88
2023/08/11 14:29:14;;;;;;;3.08;2.33;;;21.50;99.90;;;;;;4905799;29;20056;-88
2023/08/11 14:31:40;;;;;;;6.32;2.40;;;21.60;99.90;;;;;;4910604;29;20033;-87
2023/08/11 14:34:07;;;;;;;6.35;2.63;;;21.60;99.90;;;;;;4905184;29;20035;-89
2023/08/11 14:36:32;;;;;;;5.38;2.95;;;21.50;99.90;;;;;;4911957;29;20107;-86
2023/08/11 14:39:00;;;;;;;6.15;3.30;;;21.50;99.90;;;;;;4902685;29;20499;-87
2023/08/11 14:41:26;;;;;;;7.50;3.63;;;21.40;99.90;;;;;;4906428;29;20068;-87
2023/08/11 14:43:53;;;;;;;7.97;3.58;;;21.20;99.90;;;;;;4901942;29;20032;-86
2023/08/11 14:46:20;;;;;;;8.02;3.80;;;21.20;99.90;;;;;;4906845;29;20050;-87
2023/08/11 14:48:47;;;;;;;7.93;3.60;;;20.90;99.90;;;;;;4911603;29;20537;-86
2023/08/11 14:51:13;;;;;;;7.68;4.40;;;21.00;99.90;;;;;;4904161;29;20032;-90
2023/08/11 14:53:40;;;;;;;6.10;3.92;;;21.00;99.90;;;;;;4907203;29;20023;-87
2023/08/11 14:56:07;;;;;;;7.63;4.22;;;21.00;99.90;;;;;;4902092;29;20028;-89
2023/08/11 14:58:38;;;;;;;10.52;3.88;;;21.00;99.90;;;;;;4902919;29;20033;-85
2023/08/11 15:01:06;;;;;;;7.43;3.85;;;21.10;99.90;;;;;;4909330;29;20063;-88
2023/08/11 15:03:32;;;;;;;5.65;3.90;;;21.10;99.90;;;;;;4908695;29;20039;-88
2023/08/11 15:05:58;;;;;;;9.02;4.20;;;20.90;99.90;;;;;;4912188;29;20028;-87
2023/08/11 15:08:24;;;;;;;8.70;4.65;;;20.80;99.90;;;;;;4902969;29;20039;-86
2023/08/11 15:10:55;;;;;;;9.65;5.00;;;20.80;99.90;;;;;;4900480;29;20020;-84
2023/08/11 15:13:27;;;;;;;7.70;4.72;;;20.80;99.90;;;;;;4907084;29;20566;-85
2023/08/11 15:15:53;;;;;;;10.07;5.13;;;20.80;99.90;;;;;;4898553;29;20037;-85
2023/08/11 15:18:27;;;;;;;9.18;4.97;;;20.80;99.90;;;;;;4902632;29;20024;-84
2023/08/11 15:20:56;;;;;;;9.73;5.00;;;20.90;99.90;;;;;;4905839;29;20058;-85
2023/08/11 15:23:26;;;;;;;10.13;6.05;;;21.00;99.90;;;;;;4906665;29;20036;-87
2023/08/11 15:25:57;;;;;;;8.35;5.90;;;20.90;99.90;;;;;;4906751;29;20434;-86
2023/08/11 15:28:23;;;;;;;10.68;6.05;;;20.90;99.90;;;;;;4905833;29;20058;-84
2023/08/11 15:30:49;;;;;;;10.20;5.88;;;20.80;99.90;;;;;;4901023;29;20478;-84
2023/08/11 15:33:17;;;;;;;9.15;5.45;;;20.70;99.90;;;;;;4903429;29;20056;-84
2023/08/11 15:35:49;;;;;;;9.80;5.32;;;20.70;99.90;;;;;;4896744;29;20032;-83
2023/08/11 15:38:15;;;;;;;9.70;5.70;;;20.60;99.90;;;;;;4898928;29;20407;-85
2023/08/11 15:40:40;;;;;;;8.55;5.40;;;20.40;99.90;;;;;;4893783;29;20029;-83
2023/08/11 15:43:06;;;;;;;13.45;6.18;;;20.40;99.90;;;;;;4894894;29;20046;-83
2023/08/11 15:45:33;;;;;;;14.77;6.78;;;20.40;99.90;;;;;;4899640;29;20036;-83
2023/08/11 15:48:02;;;;;;;7.93;5.03;;;20.40;99.90;;;;;;4897294;29;20032;-86
2023/08/11 15:50:36;;;;;;;12.20;5.47;;;20.40;99.90;;;;;;4899344;29;20703;-87
2023/08/11 15:53:02;;;;;;;6.25;3.60;;;20.60;99.90;;;;;;4893349;29;20040;-85
2023/08/11 15:55:29;;;;;;;5.03;2.58;;;20.70;99.90;;;;;;4900443;29;20037;-86
2023/08/11 15:58:08;;;;;;;3.95;2.65;;;20.70;99.90;;;;;;4899048;29;20122;-86
2023/08/11 16:00:41;;;;;;;2.90;2.10;;;20.90;99.90;;;;;;4904539;29;20031;-85
2023/08/11 16:03:10;;;;;;;4.88;1.60;;;21.20;99.90;;;;;;4901454;29;20102;-85
2023/08/11 16:05:36;;;;;;;1.02;0.93;;;21.90;99.90;;;;;;4908418;29;20075;-85
2023/08/11 16:08:02;;;;;;;1.95;1.40;;;22.40;99.90;;;;;;4906453;29;20028;-84
2023/08/11 16:10:37;;;;;;;2.80;1.10;;;22.60;99.90;;;;;;4905292;29;20484;-84
2023/08/11 16:13:05;;;;;;;1.83;1.02;;;22.60;99.90;;;;;;4903429;29;20513;-84
2023/08/11 16:15:36;;;;;;;2.03;1.17;;;22.60;99.90;;;;;;4903328;29;20075;-84
2023/08/11 16:18:08;;;;;;;1.35;1.05;;;22.50;99.90;;;;;;4909940;29;20023;-87
2023/08/11 16:20:36;;;;;;;1.58;0.90;;;22.30;99.90;;;;;;4901053;29;20035;-85
2023/08/11 16:23:04;;;;;;;2.20;1.00;;;22.20;99.90;;;;;;4903977;29;20124;-86
2023/08/11 16:25:32;;;;;;;3.58;1.30;;;22.00;99.90;;;;;;4900979;29;20047;-85
2023/08/11 16:27:58;;;;;;;2.50;1.10;;;21.90;99.90;;;;;;4906505;29;20020;-85
2023/08/11 16:30:25;;;;;;;2.10;1.33;;;21.70;99.90;;;;;;4901398;29;20038;-85
2023/08/11 16:32:55;;;;;;;1.83;1.30;;;21.70;99.90;;;;;;4898923;29;20020;-85
2023/08/11 16:35:21;;;;;;;1.27;1.10;;;21.60;99.90;;;;;;4905503;29;20028;-84
2023/08/11 16:37:47;;;;;;;1.48;0.88;;;21.50;99.90;;;;;;4900866;29;20104;-87
2023/08/11 16:40:18;;;;;;;3.28;1.35;;;21.50;99.90;;;;;;4903568;29;20107;-86
2023/08/11 16:42:49;;;;;;;1.23;1.13;;;21.50;99.90;;;;;;4898472;29;20151;-83